KBNO

Details ICAO KBNO
Name Burns Muni
Region United States
Timezone America/Los_Angeles (UTC-8.0)
Plans Departing 3
Arriving 4
Stats Elevation 4,148 ft / 1,264 m (AMSL)
Location 43.592380° -118.954661°
Runways 2
Magnetic Variation 14.092° E
Sunrise 2017-12-14 15:23:07 UTC / 2017-12-14 07:23:07 Local
Sunset 2017-12-15 00:20:59 UTC / 2017-12-14 16:20:59 Local
Advertisement - Login to hide

Runways

ID Width Length Bearing (true) Bearing (mag) Surface Threshold Offset Overrun Length
03 60 ft / 18 m 4,595 ft / 1,401 m 47.88° 33.79° Concrete 600 ft / 183 m 0 ft / 0 m
12 75 ft / 23 m 5,095 ft / 1,553 m 134.60° 120.51° Asphalt 0 ft / 0 m 0 ft / 0 m
21 60 ft / 18 m 4,595 ft / 1,401 m 227.89° 213.80° Concrete 0 ft / 0 m 0 ft / 0 m
30 75 ft / 23 m 5,095 ft / 1,553 m 314.61° 300.52° Asphalt 0 ft / 0 m 0 ft / 0 m

Map

Weather


0- 5 10 15 20 25 30 35+ Temperature / ° C

Clouds and Precipitation
Forecast for 2017-12-15 00:00 UTC. Updated 6 minutes ago

Ground ~20,000 ft ~40,000 ft Winds

METAR

KBNO 142053Z AUTO 08006KT 10SM CLR 01/M04 A3041 RMK AO2 SLP343 T00061044 56016

TAF

KBNO 141740Z 1418/1518 VRB03KT P6SM SKC FM150800 VRB03KT 1SM BR OVC002

Frequencies

Recorded 135.57 MHz ASOS
Unicom 122.80 MHz CTAF/UNICOM
Warning: Do not use this data for real-world aviation or navigation. No guarantee of current accuracy is given.